createdAt,value
2017-07-30T00:00:58.136Z,2.90
2017-07-30T00:03:24.773Z,2.30
2017-07-30T00:05:51.412Z,2.20
2017-07-30T00:08:18.079Z,3.00
2017-07-30T00:10:44.743Z,2.40
2017-07-30T00:13:11.388Z,2.93
2017-07-30T00:15:38.078Z,3.00
2017-07-30T00:18:04.734Z,2.43
2017-07-30T00:20:31.367Z,2.70
2017-07-30T00:22:58.044Z,2.77
2017-07-30T00:25:24.707Z,3.53
2017-07-30T00:27:51.362Z,3.23
2017-07-30T00:30:18.012Z,2.87
2017-07-30T00:32:44.666Z,2.47
2017-07-30T00:35:11.327Z,2.30
2017-07-30T00:37:38.015Z,3.67
2017-07-30T00:40:04.662Z,2.50
2017-07-30T00:42:31.314Z,2.50
2017-07-30T00:44:57.972Z,2.50
2017-07-30T00:47:24.622Z,2.60
2017-07-30T00:49:51.263Z,2.87
2017-07-30T00:52:17.935Z,2.57
2017-07-30T00:54:44.594Z,2.67
2017-07-30T00:57:11.246Z,2.70
2017-07-30T00:59:37.904Z,2.30
2017-07-30T01:02:04.540Z,2.30
2017-07-30T01:04:31.198Z,2.80
2017-07-30T01:06:57.859Z,2.40
2017-07-30T01:09:24.492Z,2.07
2017-07-30T01:11:51.149Z,2.10
2017-07-30T01:14:17.819Z,2.80
2017-07-30T01:16:44.475Z,2.43
2017-07-30T01:19:11.120Z,2.83
2017-07-30T01:21:37.772Z,2.57
2017-07-30T01:24:04.432Z,2.77
2017-07-30T01:26:31.186Z,2.17
2017-07-30T01:28:57.857Z,3.00
2017-07-30T01:31:24.502Z,2.47
2017-07-30T01:33:51.158Z,2.87
2017-07-30T01:36:17.816Z,2.20
2017-07-30T01:38:44.448Z,2.90
2017-07-30T01:41:11.080Z,3.20
2017-07-30T01:43:37.758Z,2.33
2017-07-30T01:46:04.405Z,2.77
2017-07-30T01:48:31.040Z,2.77
2017-07-30T01:50:57.733Z,3.30
2017-07-30T01:53:24.381Z,3.53
2017-07-30T01:55:51.020Z,3.17
2017-07-30T01:58:17.688Z,2.73
2017-07-30T02:00:44.322Z,3.27
2017-07-30T02:03:10.970Z,2.77
2017-07-30T02:05:37.623Z,2.80
2017-07-30T02:08:04.261Z,3.40
2017-07-30T02:10:30.901Z,2.57
2017-07-30T02:12:57.555Z,2.40
2017-07-30T02:15:24.215Z,3.13
2017-07-30T02:17:50.863Z,2.60
2017-07-30T02:20:17.537Z,3.10
2017-07-30T02:22:44.172Z,2.67
2017-07-30T02:25:10.807Z,2.67
2017-07-30T02:27:37.473Z,3.20
2017-07-30T02:30:04.121Z,3.60
2017-07-30T02:32:30.757Z,3.20
2017-07-30T02:34:57.430Z,2.97
2017-07-30T02:37:24.065Z,2.90
2017-07-30T02:39:50.714Z,3.07
2017-07-30T02:42:17.378Z,3.23
2017-07-30T02:44:44.031Z,2.83
2017-07-30T02:47:10.690Z,3.00
2017-07-30T02:49:37.354Z,2.83
2017-07-30T02:52:04.000Z,3.47
2017-07-30T02:54:30.650Z,3.63
2017-07-30T02:56:57.315Z,3.13
2017-07-30T02:59:23.963Z,4.07
2017-07-30T03:01:50.615Z,3.30
2017-07-30T03:04:17.279Z,2.93
2017-07-30T03:06:43.926Z,4.10
2017-07-30T03:09:10.564Z,3.57
2017-07-30T03:11:37.236Z,3.60
2017-07-30T03:14:03.883Z,3.63
2017-07-30T03:16:30.520Z,3.57
2017-07-30T03:18:57.272Z,3.40
2017-07-30T03:21:23.916Z,3.50
2017-07-30T03:23:50.547Z,3.80
2017-07-30T03:26:17.227Z,4.07
2017-07-30T03:28:43.896Z,3.33
2017-07-30T03:31:10.553Z,3.37
2017-07-30T03:33:37.213Z,3.00
2017-07-30T03:36:03.849Z,3.87
2017-07-30T03:38:30.511Z,3.20
2017-07-30T03:40:57.183Z,2.40
2017-07-30T03:43:23.840Z,2.70
2017-07-30T03:45:50.483Z,3.13
2017-07-30T03:48:17.154Z,3.03
2017-07-30T03:50:43.806Z,3.10
2017-07-30T03:53:10.459Z,3.30
2017-07-30T03:55:37.138Z,3.20
2017-07-30T03:58:03.799Z,3.53
2017-07-30T04:00:30.449Z,2.50
2017-07-30T04:02:57.118Z,3.00
2017-07-30T04:05:23.771Z,3.73
2017-07-30T04:07:50.425Z,3.90
2017-07-30T04:10:17.114Z,3.37
2017-07-30T04:12:43.744Z,3.27
2017-07-30T04:15:10.385Z,3.40
2017-07-30T04:17:37.051Z,3.20
2017-07-30T04:20:03.702Z,3.10
2017-07-30T04:22:30.363Z,3.20
2017-07-30T04:24:57.044Z,2.87
2017-07-30T04:27:23.699Z,2.90
2017-07-30T04:29:50.354Z,3.07
2017-07-30T04:32:17.022Z,3.03
2017-07-30T04:34:43.678Z,2.97
2017-07-30T04:37:10.320Z,3.10
2017-07-30T04:39:37.035Z,3.30
2017-07-30T04:42:03.695Z,2.77
2017-07-30T04:44:30.326Z,2.80
2017-07-30T04:46:57.000Z,3.40
2017-07-30T04:49:23.651Z,3.03
2017-07-30T04:51:50.301Z,2.87
2017-07-30T04:54:16.949Z,2.90
2017-07-30T04:56:43.591Z,2.33
2017-07-30T04:59:10.231Z,2.63
2017-07-30T05:01:36.885Z,2.60
2017-07-30T05:04:03.519Z,2.70
2017-07-30T05:06:30.181Z,3.07
2017-07-30T05:08:56.835Z,3.20
2017-07-30T05:11:23.494Z,2.73
2017-07-30T05:13:50.150Z,2.83
2017-07-30T05:16:16.835Z,3.60
2017-07-30T05:18:43.499Z,2.70
2017-07-30T05:21:10.154Z,3.07
2017-07-30T05:23:36.816Z,3.10
2017-07-30T05:26:03.451Z,2.63
2017-07-30T05:28:30.103Z,2.83
2017-07-30T05:30:56.788Z,2.60
2017-07-30T05:33:23.433Z,3.30
2017-07-30T05:35:50.083Z,2.83
2017-07-30T05:38:16.770Z,2.60
2017-07-30T05:40:43.405Z,2.03
2017-07-30T05:43:10.044Z,2.50
2017-07-30T05:45:36.859Z,2.67
2017-07-30T05:48:03.492Z,2.50
2017-07-30T05:50:30.124Z,2.10
2017-07-30T05:52:56.793Z,2.40
2017-07-30T05:55:23.442Z,3.40
2017-07-30T05:57:50.090Z,2.40
2017-07-30T06:00:16.760Z,2.47
2017-07-30T06:02:43.396Z,2.47
2017-07-30T06:05:10.071Z,2.90
2017-07-30T06:07:36.740Z,2.47
2017-07-30T06:10:03.380Z,2.37
2017-07-30T06:12:30.030Z,2.77
2017-07-30T06:14:56.706Z,2.53
2017-07-30T06:17:23.357Z,2.47
2017-07-30T06:19:50.001Z,2.60
2017-07-30T06:22:16.662Z,2.70
2017-07-30T06:24:43.320Z,2.40
2017-07-30T06:27:09.960Z,2.60
2017-07-30T06:29:36.651Z,3.00
2017-07-30T06:32:03.288Z,2.07
2017-07-30T06:34:29.941Z,2.73
2017-07-30T06:36:56.635Z,2.30
2017-07-30T06:39:23.287Z,2.80
2017-07-30T06:41:49.950Z,2.73
2017-07-30T06:44:16.616Z,3.00
2017-07-30T06:46:43.272Z,2.50
2017-07-30T06:49:09.911Z,2.77
2017-07-30T06:51:36.582Z,2.90
2017-07-30T06:54:03.219Z,3.10
2017-07-30T06:56:29.860Z,2.37
2017-07-30T06:58:56.542Z,2.77
2017-07-30T07:01:23.203Z,3.20
2017-07-30T07:03:49.859Z,3.20
2017-07-30T07:06:16.519Z,2.40
2017-07-30T07:08:43.172Z,2.90
2017-07-30T07:11:09.812Z,2.60
2017-07-30T07:13:36.499Z,3.27
2017-07-30T07:16:03.167Z,2.33
2017-07-30T07:18:29.830Z,2.70
2017-07-30T07:20:56.489Z,2.50
2017-07-30T07:23:23.146Z,2.87
2017-07-30T07:25:49.780Z,2.30
2017-07-30T07:28:16.459Z,3.10
2017-07-30T07:30:43.118Z,2.57
2017-07-30T07:33:09.752Z,2.43
2017-07-30T07:35:36.423Z,2.77
2017-07-30T07:38:03.075Z,2.40
2017-07-30T07:40:29.734Z,2.43
2017-07-30T07:42:56.427Z,2.77
2017-07-30T07:45:23.069Z,2.30
2017-07-30T07:47:49.720Z,2.80
2017-07-30T07:50:16.388Z,2.20
2017-07-30T07:52:43.038Z,2.00
2017-07-30T07:55:09.696Z,2.07
2017-07-30T07:57:36.358Z,2.20
2017-07-30T08:00:03.002Z,2.47
2017-07-30T08:02:29.654Z,3.10
2017-07-30T08:04:56.346Z,2.30
2017-07-30T08:07:22.980Z,2.60
2017-07-30T08:09:49.639Z,2.10
2017-07-30T08:12:16.304Z,2.00
2017-07-30T08:14:42.936Z,2.17
2017-07-30T08:17:09.571Z,2.00
2017-07-30T08:19:36.254Z,2.10
2017-07-30T08:22:02.963Z,1.60
2017-07-30T08:24:29.612Z,1.80
2017-07-30T08:26:56.287Z,2.00
2017-07-30T08:29:22.927Z,1.70
2017-07-30T08:31:49.573Z,2.23
2017-07-30T08:34:16.231Z,2.17
2017-07-30T08:36:42.874Z,2.30
2017-07-30T08:39:09.514Z,2.37
2017-07-30T08:41:36.203Z,1.73
2017-07-30T08:44:02.855Z,2.00
2017-07-30T08:46:29.496Z,2.13
2017-07-30T08:48:56.175Z,1.80
2017-07-30T08:51:22.816Z,1.63
2017-07-30T08:53:49.471Z,1.73
2017-07-30T08:56:16.149Z,1.73
2017-07-30T08:58:42.806Z,1.83
2017-07-30T09:01:09.465Z,2.17
2017-07-30T09:03:36.147Z,1.60
2017-07-30T09:06:02.799Z,1.93
2017-07-30T09:08:29.444Z,1.40
2017-07-30T09:10:56.135Z,1.70
2017-07-30T09:13:22.771Z,1.73
2017-07-30T09:15:49.427Z,1.53
2017-07-30T09:18:16.088Z,1.50
2017-07-30T09:20:42.732Z,1.37
2017-07-30T09:23:09.399Z,1.37
2017-07-30T09:25:36.088Z,1.40
2017-07-30T09:28:02.737Z,1.60
2017-07-30T09:30:29.396Z,1.50
2017-07-30T09:32:56.065Z,1.40
2017-07-30T09:35:22.719Z,1.60
2017-07-30T09:37:49.376Z,1.87
2017-07-30T09:40:16.075Z,1.40
2017-07-30T09:42:42.756Z,2.10
2017-07-30T09:45:09.405Z,1.70
2017-07-30T09:47:36.040Z,1.40
2017-07-30T09:50:02.728Z,3.33
2017-07-30T09:52:29.379Z,1.83
2017-07-30T09:54:56.051Z,1.90
2017-07-30T09:57:22.689Z,1.83
2017-07-30T09:59:49.356Z,1.93
2017-07-30T10:02:16.058Z,1.50
2017-07-30T10:04:42.710Z,1.90
2017-07-30T10:07:09.379Z,1.50
2017-07-30T10:09:36.135Z,2.00
2017-07-30T10:12:02.777Z,1.40
2017-07-30T10:14:29.429Z,1.50
2017-07-30T10:16:56.087Z,2.13
2017-07-30T10:19:22.735Z,1.77
2017-07-30T10:21:49.373Z,2.43
2017-07-30T10:24:16.063Z,1.73
2017-07-30T10:26:42.699Z,1.70
2017-07-30T10:29:09.335Z,1.63
2017-07-30T10:31:36.019Z,1.70
2017-07-30T10:34:02.656Z,1.40
2017-07-30T10:36:29.296Z,1.10
2017-07-30T10:38:55.952Z,1.00
2017-07-30T10:41:22.615Z,1.20
2017-07-30T10:43:49.270Z,1.17
2017-07-30T10:46:15.948Z,1.20
2017-07-30T10:48:42.602Z,1.17
2017-07-30T10:51:09.262Z,1.43
2017-07-30T10:53:35.934Z,1.20
2017-07-30T10:56:02.585Z,1.10
2017-07-30T10:58:29.228Z,1.20
2017-07-30T11:00:55.884Z,1.10
2017-07-30T11:03:22.519Z,1.30
2017-07-30T11:05:49.180Z,1.37
2017-07-30T11:08:15.858Z,1.10
2017-07-30T11:10:42.517Z,1.30
2017-07-30T11:13:09.166Z,1.20
2017-07-30T11:15:35.848Z,1.50
2017-07-30T11:18:02.493Z,1.10
2017-07-30T11:20:29.136Z,1.20
2017-07-30T11:22:55.817Z,1.20
2017-07-30T11:25:22.470Z,1.20
2017-07-30T11:27:49.138Z,1.33
2017-07-30T11:30:15.813Z,1.00
2017-07-30T11:32:42.474Z,1.00
2017-07-30T11:35:09.127Z,1.20
2017-07-30T11:37:35.844Z,1.10
2017-07-30T11:40:02.489Z,1.03
2017-07-30T11:42:29.143Z,1.00
2017-07-30T11:44:55.818Z,1.00
2017-07-30T11:47:22.483Z,1.03
2017-07-30T11:49:49.136Z,0.90
2017-07-30T11:52:15.811Z,0.90
2017-07-30T11:54:42.452Z,1.30
2017-07-30T11:57:09.091Z,1.17
2017-07-30T11:59:35.764Z,1.00
2017-07-30T12:02:02.420Z,1.23
2017-07-30T12:04:29.067Z,1.10
2017-07-30T12:06:55.728Z,1.67
2017-07-30T12:09:22.424Z,1.13
2017-07-30T12:11:49.084Z,1.53
2017-07-30T12:14:15.738Z,1.60
2017-07-30T12:16:42.424Z,1.20
2017-07-30T12:19:09.088Z,1.70
2017-07-30T12:21:35.723Z,1.33
2017-07-30T12:24:02.403Z,1.30
2017-07-30T12:26:29.061Z,1.40
2017-07-30T12:28:55.714Z,1.00
2017-07-30T12:31:22.390Z,1.00
2017-07-30T12:33:49.033Z,1.20
2017-07-30T12:36:15.684Z,1.13
2017-07-30T12:38:42.354Z,1.47
2017-07-30T12:41:08.988Z,1.10
2017-07-30T12:43:35.670Z,1.00
2017-07-30T12:46:02.308Z,1.10
2017-07-30T12:48:28.949Z,1.00
2017-07-30T12:50:55.626Z,1.07
2017-07-30T12:53:22.285Z,1.10
2017-07-30T12:55:48.929Z,1.30
2017-07-30T12:58:15.604Z,1.10
2017-07-30T13:00:42.240Z,1.07
2017-07-30T13:03:08.891Z,1.40
2017-07-30T13:05:35.576Z,1.10
2017-07-30T13:08:02.224Z,1.17
2017-07-30T13:10:28.862Z,1.27
2017-07-30T13:12:55.535Z,1.20
2017-07-30T13:15:22.176Z,1.17
2017-07-30T13:17:48.815Z,1.20
2017-07-30T13:20:15.487Z,1.20
2017-07-30T13:22:42.143Z,1.07
2017-07-30T13:25:08.780Z,1.23
2017-07-30T13:27:35.428Z,1.10
2017-07-30T13:30:02.121Z,1.30
2017-07-30T13:32:28.763Z,1.20
2017-07-30T13:34:55.451Z,1.40
2017-07-30T13:37:22.137Z,1.40
2017-07-30T13:39:48.774Z,1.20
2017-07-30T13:42:15.446Z,1.30
2017-07-30T13:44:42.087Z,1.20
2017-07-30T13:47:08.752Z,1.50
2017-07-30T13:49:35.536Z,1.47
2017-07-30T13:52:02.175Z,1.40
2017-07-30T13:54:28.812Z,1.40
2017-07-30T13:56:55.465Z,1.40
2017-07-30T13:59:22.120Z,1.33
2017-07-30T14:01:48.888Z,1.23
2017-07-30T14:04:15.564Z,1.40
2017-07-30T14:06:42.219Z,1.30
2017-07-30T14:09:08.865Z,1.30
2017-07-30T14:11:35.563Z,1.40
2017-07-30T14:14:02.221Z,1.13
2017-07-30T14:16:28.882Z,1.20
2017-07-30T14:18:55.585Z,1.40
2017-07-30T14:21:22.238Z,1.30
2017-07-30T14:23:48.882Z,1.40
2017-07-30T14:26:15.559Z,1.83
2017-07-30T14:28:42.196Z,1.20
2017-07-30T14:31:08.851Z,1.20
2017-07-30T14:33:35.538Z,1.60
2017-07-30T14:36:02.189Z,1.20
2017-07-30T14:38:28.855Z,1.30
2017-07-30T14:40:55.534Z,1.50
2017-07-30T14:43:22.186Z,1.20
2017-07-30T14:45:48.846Z,1.10
2017-07-30T14:48:15.527Z,1.30
2017-07-30T14:50:42.176Z,1.10
2017-07-30T14:53:08.826Z,1.13
2017-07-30T14:55:35.521Z,1.10
2017-07-30T14:58:02.191Z,1.60
2017-07-30T15:00:28.842Z,1.10
2017-07-30T15:02:55.519Z,1.27
2017-07-30T15:05:22.187Z,1.20
2017-07-30T15:07:48.855Z,1.00
2017-07-30T15:10:15.524Z,1.30
2017-07-30T15:12:42.179Z,0.90
2017-07-30T15:15:08.839Z,1.00
2017-07-30T15:17:35.532Z,1.20
2017-07-30T15:20:02.173Z,1.50
2017-07-30T15:22:28.811Z,1.10
2017-07-30T15:24:55.484Z,1.70
2017-07-30T15:27:22.161Z,1.17
2017-07-30T15:29:48.820Z,1.20
2017-07-30T15:32:15.511Z,1.43
2017-07-30T15:34:42.148Z,1.30
2017-07-30T15:37:08.798Z,1.10
2017-07-30T15:39:35.490Z,1.50
2017-07-30T15:42:02.154Z,1.30
2017-07-30T15:44:28.800Z,1.50
2017-07-30T15:46:55.475Z,1.27
2017-07-30T15:49:22.116Z,2.47
2017-07-30T15:51:48.772Z,1.50
2017-07-30T15:54:15.449Z,1.60
2017-07-30T15:56:42.088Z,1.40
2017-07-30T15:59:08.727Z,1.50
2017-07-30T16:01:35.384Z,1.60
2017-07-30T16:04:02.045Z,1.40
2017-07-30T16:06:28.684Z,1.30
2017-07-30T16:08:55.368Z,1.57
2017-07-30T16:11:22.026Z,1.37
2017-07-30T16:13:48.668Z,1.20
2017-07-30T16:16:15.329Z,1.33
2017-07-30T16:18:42.005Z,1.33
2017-07-30T16:21:09.491Z,1.10
2017-07-30T16:23:36.175Z,1.10
2017-07-30T16:26:02.820Z,1.40
2017-07-30T16:28:29.463Z,1.20
2017-07-30T16:30:56.138Z,1.20
2017-07-30T16:33:22.776Z,1.40
2017-07-30T16:35:49.412Z,1.30
2017-07-30T16:38:16.074Z,1.30
2017-07-30T16:40:42.724Z,1.10
2017-07-30T16:43:09.380Z,1.40
2017-07-30T16:45:36.051Z,1.30
2017-07-30T16:48:02.703Z,1.40
2017-07-30T16:50:29.336Z,1.20
2017-07-30T16:52:56.023Z,1.60
2017-07-30T16:55:22.679Z,1.30
2017-07-30T16:57:49.332Z,1.20
2017-07-30T17:00:15.996Z,1.47
2017-07-30T17:02:42.654Z,1.50
2017-07-30T17:05:09.334Z,1.30
2017-07-30T17:07:35.971Z,1.73
2017-07-30T17:10:02.606Z,1.57
2017-07-30T17:12:29.273Z,1.47
2017-07-30T17:14:55.912Z,1.60
2017-07-30T17:17:22.548Z,2.30
2017-07-30T17:19:49.243Z,1.83
2017-07-30T17:22:15.879Z,1.50
2017-07-30T17:24:42.562Z,1.50
2017-07-30T17:27:09.254Z,1.30
2017-07-30T17:29:35.924Z,1.53
2017-07-30T17:32:02.559Z,1.60
2017-07-30T17:34:29.211Z,1.40
2017-07-30T17:36:55.878Z,1.40
2017-07-30T17:39:22.535Z,1.60
2017-07-30T17:41:49.190Z,1.50
2017-07-30T17:44:15.865Z,1.30
2017-07-30T17:46:42.504Z,1.50
2017-07-30T17:49:09.148Z,1.63
2017-07-30T17:51:35.843Z,1.50
2017-07-30T17:54:02.499Z,2.07
2017-07-30T17:56:29.154Z,2.20
2017-07-30T17:58:55.834Z,1.70
2017-07-30T18:01:22.475Z,1.50
2017-07-30T18:03:49.143Z,1.80
2017-07-30T18:06:15.816Z,1.93
2017-07-30T18:08:42.455Z,1.80
2017-07-30T18:11:09.110Z,2.00
2017-07-30T18:13:35.790Z,1.93
2017-07-30T18:16:02.455Z,2.03
2017-07-30T18:18:29.107Z,1.63
2017-07-30T18:20:55.785Z,1.90
2017-07-30T18:23:22.424Z,1.67
2017-07-30T18:25:49.084Z,1.63
2017-07-30T18:28:15.761Z,2.17
2017-07-30T18:30:42.399Z,2.30
2017-07-30T18:33:09.066Z,1.90
2017-07-30T18:35:35.719Z,2.43
2017-07-30T18:38:02.361Z,1.77
2017-07-30T18:40:29.033Z,2.33
2017-07-30T18:42:55.679Z,2.03
2017-07-30T18:45:22.332Z,1.80
2017-07-30T18:47:48.969Z,1.83
2017-07-30T18:50:15.634Z,1.80
2017-07-30T18:52:42.288Z,2.37
2017-07-30T18:55:08.933Z,1.70
2017-07-30T18:57:35.587Z,2.00
2017-07-30T19:00:02.252Z,4.03
2017-07-30T19:02:28.907Z,2.00
2017-07-30T19:04:55.567Z,1.90
2017-07-30T19:07:22.240Z,2.00
2017-07-30T19:09:48.903Z,2.33
2017-07-30T19:12:15.555Z,1.90
2017-07-30T19:14:42.224Z,2.47
2017-07-30T19:17:08.864Z,2.00
2017-07-30T19:19:35.524Z,2.10
2017-07-30T19:22:02.210Z,2.47
2017-07-30T19:24:28.862Z,1.90
2017-07-30T19:26:55.508Z,1.80
2017-07-30T19:29:22.175Z,2.10
2017-07-30T19:31:48.823Z,2.00
2017-07-30T19:34:15.503Z,2.20
2017-07-30T19:36:42.191Z,1.80
2017-07-30T19:39:08.832Z,2.27
2017-07-30T19:41:35.521Z,1.70
2017-07-30T19:44:02.223Z,1.40
2017-07-30T19:46:28.865Z,1.50
2017-07-30T19:48:55.519Z,1.83
2017-07-30T19:51:22.186Z,2.33
2017-07-30T19:53:48.837Z,1.70
2017-07-30T19:56:15.472Z,1.63
2017-07-30T19:58:42.152Z,1.70
2017-07-30T20:01:08.811Z,1.60
2017-07-30T20:03:35.459Z,1.77
2017-07-30T20:06:02.155Z,1.83
2017-07-30T20:08:28.811Z,1.67
2017-07-30T20:10:55.465Z,1.60
2017-07-30T20:13:22.120Z,1.57
2017-07-30T20:15:48.783Z,1.80
2017-07-30T20:18:15.424Z,2.23
2017-07-30T20:20:42.099Z,1.43
2017-07-30T20:23:08.791Z,1.80
2017-07-30T20:25:35.442Z,1.73
2017-07-30T20:28:02.084Z,1.53
2017-07-30T20:30:28.745Z,1.83
2017-07-30T20:32:55.383Z,1.60
2017-07-30T20:35:22.043Z,1.63
2017-07-30T20:37:48.720Z,1.60
2017-07-30T20:40:15.361Z,1.53
2017-07-30T20:42:41.997Z,1.70
2017-07-30T20:45:08.669Z,2.30
2017-07-30T20:47:35.327Z,2.03
2017-07-30T20:50:01.966Z,1.70
2017-07-30T20:52:28.641Z,1.80
2017-07-30T20:54:55.285Z,1.60
2017-07-30T20:57:21.928Z,1.83
2017-07-30T20:59:48.619Z,1.70
2017-07-30T21:02:15.261Z,1.83
2017-07-30T21:04:41.922Z,2.13
2017-07-30T21:07:08.583Z,1.87
2017-07-30T21:09:35.234Z,1.70
2017-07-30T21:12:01.895Z,2.27
2017-07-30T21:14:28.595Z,3.50
2017-07-30T21:16:55.332Z,2.07
2017-07-30T21:19:21.968Z,1.80
2017-07-30T21:21:48.647Z,1.80
2017-07-30T21:24:15.307Z,1.67
2017-07-30T21:26:41.966Z,2.30
2017-07-30T21:29:08.647Z,1.80
2017-07-30T21:31:35.288Z,1.90
2017-07-30T21:34:01.939Z,1.90
2017-07-30T21:36:28.599Z,3.50
2017-07-30T21:38:55.259Z,2.00
2017-07-30T21:41:21.900Z,1.97
2017-07-30T21:43:48.572Z,1.77
2017-07-30T21:46:15.296Z,2.00
2017-07-30T21:48:41.936Z,1.70
2017-07-30T21:51:08.600Z,1.80
2017-07-30T21:53:35.236Z,1.70
2017-07-30T21:56:01.890Z,1.73
2017-07-30T21:58:28.566Z,1.73
2017-07-30T22:00:55.227Z,2.03
2017-07-30T22:03:21.888Z,1.90
2017-07-30T22:05:48.566Z,2.07
2017-07-30T22:08:15.216Z,1.60
2017-07-30T22:10:41.872Z,2.07
2017-07-30T22:13:08.524Z,2.33
2017-07-30T22:15:35.164Z,1.80
2017-07-30T22:18:01.819Z,2.10
2017-07-30T22:20:28.497Z,1.87
2017-07-30T22:22:55.150Z,2.20
2017-07-30T22:25:22.752Z,1.83
2017-07-30T22:27:49.425Z,2.20
2017-07-30T22:30:16.063Z,2.40
2017-07-30T22:32:42.736Z,1.90
2017-07-30T22:35:09.435Z,2.10
2017-07-30T22:37:36.091Z,2.00
2017-07-30T22:40:02.755Z,1.80
2017-07-30T22:42:29.416Z,2.80
2017-07-30T22:44:56.074Z,2.03
2017-07-30T22:47:22.739Z,1.80
2017-07-30T22:49:49.426Z,2.13
2017-07-30T22:52:16.064Z,2.07
2017-07-30T22:54:42.722Z,2.00
2017-07-30T22:57:09.399Z,1.90
2017-07-30T22:59:36.059Z,1.57
2017-07-30T23:02:02.700Z,2.07
2017-07-30T23:04:29.383Z,1.87
2017-07-30T23:06:56.023Z,1.80
2017-07-30T23:09:22.678Z,2.93
2017-07-30T23:11:49.343Z,1.70
2017-07-30T23:14:15.990Z,2.10
2017-07-30T23:16:42.632Z,2.77
2017-07-30T23:19:09.308Z,1.90
2017-07-30T23:21:35.952Z,2.40
2017-07-30T23:24:02.614Z,1.87
2017-07-30T23:26:29.264Z,2.17
2017-07-30T23:28:55.927Z,2.00
2017-07-30T23:31:22.582Z,2.07
2017-07-30T23:33:49.263Z,2.03
2017-07-30T23:36:15.919Z,1.83
2017-07-30T23:38:42.575Z,2.30
2017-07-30T23:41:09.231Z,1.90
2017-07-30T23:43:35.974Z,2.60
2017-07-30T23:46:02.614Z,2.47
2017-07-30T23:48:29.263Z,2.00
2017-07-30T23:50:55.905Z,1.97
2017-07-30T23:53:22.552Z,2.10
2017-07-30T23:55:49.228Z,2.13
2017-07-30T23:58:15.890Z,2.37
